sensor_id;sensor_type;location;lat;lon;timestamp;P1;durP1;ratioP1;P2;durP2;ratioP2
10651;SDS011;5374;42.742;23.266;2023-11-25T00:02:44;9.93;;;3.30;;
10651;SDS011;5374;42.742;23.266;2023-11-25T00:05:31;12.27;;;3.40;;
10651;SDS011;5374;42.742;23.266;2023-11-25T00:08:19;9.93;;;3.30;;
10651;SDS011;5374;42.742;23.266;2023-11-25T00:11:06;8.63;;;3.27;;
10651;SDS011;5374;42.742;23.266;2023-11-25T00:13:53;11.07;;;3.27;;
10651;SDS011;5374;42.742;23.266;2023-11-25T00:16:44;9.23;;;3.20;;
10651;SDS011;5374;42.742;23.266;2023-11-25T00:19:31;9.60;;;3.00;;
10651;SDS011;5374;42.742;23.266;2023-11-25T00:22:18;8.20;;;2.93;;
10651;SDS011;5374;42.742;23.266;2023-11-25T00:25:07;10.27;;;2.90;;
10651;SDS011;5374;42.742;23.266;2023-11-25T00:27:55;7.87;;;2.70;;
10651;SDS011;5374;42.742;23.266;2023-11-25T00:30:42;7.13;;;2.73;;
10651;SDS011;5374;42.742;23.266;2023-11-25T00:33:32;7.90;;;2.87;;
10651;SDS011;5374;42.742;23.266;2023-11-25T00:36:19;10.13;;;3.03;;
10651;SDS011;5374;42.742;23.266;2023-11-25T00:39:06;6.57;;;2.87;;
10651;SDS011;5374;42.742;23.266;2023-11-25T00:41:53;8.07;;;2.93;;
10651;SDS011;5374;42.742;23.266;2023-11-25T00:44:41;8.07;;;3.20;;
10651;SDS011;5374;42.742;23.266;2023-11-25T00:47:28;9.93;;;3.03;;
10651;SDS011;5374;42.742;23.266;2023-11-25T00:50:17;7.67;;;2.87;;
10651;SDS011;5374;42.742;23.266;2023-11-25T00:53:05;7.83;;;2.70;;
10651;SDS011;5374;42.742;23.266;2023-11-25T00:55:53;8.00;;;2.50;;
10651;SDS011;5374;42.742;23.266;2023-11-25T00:58:40;5.70;;;2.73;;
10651;SDS011;5374;42.742;23.266;2023-11-25T01:01:27;7.43;;;2.60;;
10651;SDS011;5374;42.742;23.266;2023-11-25T01:04:14;5.47;;;2.67;;
10651;SDS011;5374;42.742;23.266;2023-11-25T01:07:04;9.37;;;2.70;;
10651;SDS011;5374;42.742;23.266;2023-11-25T01:09:51;6.70;;;2.80;;
10651;SDS011;5374;42.742;23.266;2023-11-25T01:12:38;8.20;;;2.80;;
10651;SDS011;5374;42.742;23.266;2023-11-25T01:15:25;6.90;;;3.40;;
10651;SDS011;5374;42.742;23.266;2023-11-25T01:18:13;7.10;;;2.67;;
10651;SDS011;5374;42.742;23.266;2023-11-25T01:21:00;6.20;;;2.80;;
10651;SDS011;5374;42.742;23.266;2023-11-25T01:23:49;7.40;;;3.03;;
10651;SDS011;5374;42.742;23.266;2023-11-25T01:26:36;5.63;;;2.83;;
10651;SDS011;5374;42.742;23.266;2023-11-25T01:29:23;8.40;;;3.63;;
10651;SDS011;5374;42.742;23.266;2023-11-25T01:32:10;6.80;;;4.87;;
10651;SDS011;5374;42.742;23.266;2023-11-25T01:34:58;4.80;;;3.33;;
10651;SDS011;5374;42.742;23.266;2023-11-25T01:37:45;5.07;;;3.17;;
10651;SDS011;5374;42.742;23.266;2023-11-25T01:40:34;3.50;;;2.67;;
10651;SDS011;5374;42.742;23.266;2023-11-25T01:43:22;6.03;;;3.50;;
10651;SDS011;5374;42.742;23.266;2023-11-25T01:46:10;3.43;;;2.33;;
10651;SDS011;5374;42.742;23.266;2023-11-25T01:49:02;2.37;;;2.17;;
10651;SDS011;5374;42.742;23.266;2023-11-25T01:51:49;3.10;;;1.83;;
10651;SDS011;5374;42.742;23.266;2023-11-25T01:54:38;2.37;;;1.90;;
10651;SDS011;5374;42.742;23.266;2023-11-25T01:57:27;2.80;;;2.00;;
10651;SDS011;5374;42.742;23.266;2023-11-25T02:00:15;2.77;;;1.90;;
10651;SDS011;5374;42.742;23.266;2023-11-25T02:03:03;2.87;;;1.97;;
10651;SDS011;5374;42.742;23.266;2023-11-25T02:05:51;2.30;;;1.40;;
10651;SDS011;5374;42.742;23.266;2023-11-25T02:08:38;1.87;;;1.30;;
10651;SDS011;5374;42.742;23.266;2023-11-25T02:11:25;2.60;;;1.57;;
10651;SDS011;5374;42.742;23.266;2023-11-25T02:14:13;2.10;;;1.57;;
10651;SDS011;5374;42.742;23.266;2023-11-25T02:17:00;3.00;;;1.70;;
10651;SDS011;5374;42.742;23.266;2023-11-25T02:19:48;2.00;;;1.60;;
10651;SDS011;5374;42.742;23.266;2023-11-25T02:22:35;1.73;;;1.40;;
10651;SDS011;5374;42.742;23.266;2023-11-25T02:25:23;2.20;;;1.53;;
10651;SDS011;5374;42.742;23.266;2023-11-25T02:28:11;3.13;;;1.17;;
10651;SDS011;5374;42.742;23.266;2023-11-25T02:30:58;6.07;;;1.60;;
10651;SDS011;5374;42.742;23.266;2023-11-25T02:33:45;4.60;;;2.40;;
10651;SDS011;5374;42.742;23.266;2023-11-25T02:36:32;5.43;;;2.07;;
10651;SDS011;5374;42.742;23.266;2023-11-25T02:39:20;4.30;;;1.90;;
10651;SDS011;5374;42.742;23.266;2023-11-25T02:42:09;6.57;;;2.90;;
10651;SDS011;5374;42.742;23.266;2023-11-25T02:44:58;5.57;;;4.10;;
10651;SDS011;5374;42.742;23.266;2023-11-25T02:47:46;5.57;;;3.10;;
10651;SDS011;5374;42.742;23.266;2023-11-25T02:50:34;5.20;;;3.30;;
10651;SDS011;5374;42.742;23.266;2023-11-25T02:53:21;4.00;;;2.40;;
10651;SDS011;5374;42.742;23.266;2023-11-25T02:56:09;2.70;;;1.70;;
10651;SDS011;5374;42.742;23.266;2023-11-25T02:58:57;2.57;;;1.70;;
10651;SDS011;5374;42.742;23.266;2023-11-25T03:01:44;4.47;;;2.10;;
10651;SDS011;5374;42.742;23.266;2023-11-25T03:04:37;5.23;;;2.80;;
10651;SDS011;5374;42.742;23.266;2023-11-25T03:07:27;2.20;;;1.30;;
10651;SDS011;5374;42.742;23.266;2023-11-25T03:10:15;3.50;;;2.13;;
10651;SDS011;5374;42.742;23.266;2023-11-25T03:13:03;4.17;;;2.10;;
10651;SDS011;5374;42.742;23.266;2023-11-25T03:15:51;3.57;;;2.60;;
10651;SDS011;5374;42.742;23.266;2023-11-25T03:18:40;6.27;;;3.20;;
10651;SDS011;5374;42.742;23.266;2023-11-25T03:21:27;10.00;;;6.17;;
10651;SDS011;5374;42.742;23.266;2023-11-25T03:24:15;2.40;;;1.27;;
10651;SDS011;5374;42.742;23.266;2023-11-25T03:27:03;3.83;;;2.30;;
10651;SDS011;5374;42.742;23.266;2023-11-25T03:29:51;4.07;;;2.00;;
10651;SDS011;5374;42.742;23.266;2023-11-25T03:32:39;3.27;;;2.10;;
10651;SDS011;5374;42.742;23.266;2023-11-25T03:35:26;1.83;;;1.60;;
10651;SDS011;5374;42.742;23.266;2023-11-25T03:38:13;3.03;;;2.20;;
10651;SDS011;5374;42.742;23.266;2023-11-25T03:41:01;2.97;;;1.57;;
10651;SDS011;5374;42.742;23.266;2023-11-25T03:43:48;1.87;;;1.33;;
10651;SDS011;5374;42.742;23.266;2023-11-25T03:46:35;2.20;;;1.40;;
10651;SDS011;5374;42.742;23.266;2023-11-25T03:49:25;1.97;;;1.40;;
10651;SDS011;5374;42.742;23.266;2023-11-25T03:52:12;2.70;;;1.23;;
10651;SDS011;5374;42.742;23.266;2023-11-25T03:55:00;4.57;;;2.07;;
10651;SDS011;5374;42.742;23.266;2023-11-25T03:57:48;3.00;;;1.57;;
10651;SDS011;5374;42.742;23.266;2023-11-25T04:00:35;2.00;;;1.20;;
10651;SDS011;5374;42.742;23.266;2023-11-25T04:03:22;2.67;;;1.50;;
10651;SDS011;5374;42.742;23.266;2023-11-25T04:06:12;1.73;;;1.30;;
10651;SDS011;5374;42.742;23.266;2023-11-25T04:08:59;11.37;;;8.73;;
10651;SDS011;5374;42.742;23.266;2023-11-25T04:11:47;5.00;;;3.30;;
10651;SDS011;5374;42.742;23.266;2023-11-25T04:14:34;1.83;;;1.27;;
10651;SDS011;5374;42.742;23.266;2023-11-25T04:17:21;3.67;;;1.30;;
10651;SDS011;5374;42.742;23.266;2023-11-25T04:20:09;2.40;;;1.20;;
10651;SDS011;5374;42.742;23.266;2023-11-25T04:23:01;5.03;;;1.50;;
10651;SDS011;5374;42.742;23.266;2023-11-25T04:25:51;1.87;;;1.30;;
10651;SDS011;5374;42.742;23.266;2023-11-25T04:28:39;2.73;;;1.23;;
10651;SDS011;5374;42.742;23.266;2023-11-25T04:31:26;2.33;;;1.40;;
10651;SDS011;5374;42.742;23.266;2023-11-25T04:34:13;2.40;;;1.40;;
10651;SDS011;5374;42.742;23.266;2023-11-25T04:37:00;1.13;;;0.97;;
10651;SDS011;5374;42.742;23.266;2023-11-25T04:39:49;1.40;;;1.20;;
10651;SDS011;5374;42.742;23.266;2023-11-25T04:42:36;1.30;;;0.80;;
10651;SDS011;5374;42.742;23.266;2023-11-25T04:45:23;1.80;;;1.20;;
10651;SDS011;5374;42.742;23.266;2023-11-25T04:48:11;1.90;;;1.00;;
10651;SDS011;5374;42.742;23.266;2023-11-25T04:50:58;1.43;;;0.97;;
10651;SDS011;5374;42.742;23.266;2023-11-25T04:53:45;1.50;;;0.97;;
10651;SDS011;5374;42.742;23.266;2023-11-25T04:56:34;1.00;;;0.90;;
10651;SDS011;5374;42.742;23.266;2023-11-25T04:59:23;1.60;;;1.07;;
10651;SDS011;5374;42.742;23.266;2023-11-25T05:02:10;2.00;;;1.27;;
10651;SDS011;5374;42.742;23.266;2023-11-25T05:04:59;1.87;;;1.20;;
10651;SDS011;5374;42.742;23.266;2023-11-25T05:07:46;3.30;;;1.10;;
10651;SDS011;5374;42.742;23.266;2023-11-25T05:10:33;1.40;;;0.97;;
10651;SDS011;5374;42.742;23.266;2023-11-25T05:13:23;1.97;;;1.40;;
10651;SDS011;5374;42.742;23.266;2023-11-25T05:16:11;1.60;;;1.20;;
10651;SDS011;5374;42.742;23.266;2023-11-25T05:18:58;1.43;;;1.10;;
10651;SDS011;5374;42.742;23.266;2023-11-25T05:21:45;1.13;;;0.90;;
10651;SDS011;5374;42.742;23.266;2023-11-25T05:24:32;1.70;;;1.00;;
10651;SDS011;5374;42.742;23.266;2023-11-25T05:27:20;2.13;;;1.27;;
10651;SDS011;5374;42.742;23.266;2023-11-25T05:30:09;1.60;;;1.20;;
10651;SDS011;5374;42.742;23.266;2023-11-25T05:32:58;2.03;;;1.30;;
10651;SDS011;5374;42.742;23.266;2023-11-25T05:35:45;2.30;;;1.53;;
10651;SDS011;5374;42.742;23.266;2023-11-25T05:38:33;1.73;;;1.10;;
10651;SDS011;5374;42.742;23.266;2023-11-25T05:41:21;2.90;;;1.13;;
10651;SDS011;5374;42.742;23.266;2023-11-25T05:44:11;2.10;;;1.27;;
10651;SDS011;5374;42.742;23.266;2023-11-25T05:47:00;4.37;;;1.97;;
10651;SDS011;5374;42.742;23.266;2023-11-25T05:49:47;2.67;;;1.40;;
10651;SDS011;5374;42.742;23.266;2023-11-25T05:52:35;2.17;;;1.10;;
10651;SDS011;5374;42.742;23.266;2023-11-25T05:55:22;1.80;;;1.23;;
10651;SDS011;5374;42.742;23.266;2023-11-25T05:58:11;2.13;;;1.30;;
10651;SDS011;5374;42.742;23.266;2023-11-25T06:00:59;2.07;;;1.63;;
10651;SDS011;5374;42.742;23.266;2023-11-25T06:03:49;3.83;;;2.70;;
10651;SDS011;5374;42.742;23.266;2023-11-25T06:06:37;1.67;;;1.50;;
10651;SDS011;5374;42.742;23.266;2023-11-25T06:09:24;2.00;;;1.57;;
10651;SDS011;5374;42.742;23.266;2023-11-25T06:12:12;7.93;;;5.07;;
10651;SDS011;5374;42.742;23.266;2023-11-25T06:14:59;4.07;;;2.17;;
10651;SDS011;5374;42.742;23.266;2023-11-25T06:17:46;3.37;;;2.00;;
10651;SDS011;5374;42.742;23.266;2023-11-25T06:20:34;8.20;;;5.43;;
10651;SDS011;5374;42.742;23.266;2023-11-25T06:23:21;16.33;;;9.73;;
10651;SDS011;5374;42.742;23.266;2023-11-25T06:26:09;17.33;;;9.50;;
10651;SDS011;5374;42.742;23.266;2023-11-25T06:28:56;7.00;;;3.73;;
10651;SDS011;5374;42.742;23.266;2023-11-25T06:31:43;7.97;;;4.20;;
10651;SDS011;5374;42.742;23.266;2023-11-25T06:34:31;9.40;;;5.37;;
10651;SDS011;5374;42.742;23.266;2023-11-25T06:37:21;9.27;;;5.67;;
10651;SDS011;5374;42.742;23.266;2023-11-25T06:40:10;6.20;;;4.20;;
10651;SDS011;5374;42.742;23.266;2023-11-25T06:42:59;25.27;;;14.50;;
10651;SDS011;5374;42.742;23.266;2023-11-25T06:45:47;26.67;;;16.60;;
10651;SDS011;5374;42.742;23.266;2023-11-25T06:48:34;16.07;;;7.83;;
10651;SDS011;5374;42.742;23.266;2023-11-25T06:51:21;10.27;;;7.00;;
10651;SDS011;5374;42.742;23.266;2023-11-25T06:54:10;8.43;;;6.00;;
10651;SDS011;5374;42.742;23.266;2023-11-25T06:56:58;8.30;;;5.17;;
10651;SDS011;5374;42.742;23.266;2023-11-25T06:59:45;8.43;;;6.57;;
10651;SDS011;5374;42.742;23.266;2023-11-25T07:02:32;6.63;;;5.40;;
10651;SDS011;5374;42.742;23.266;2023-11-25T07:05:19;4.17;;;2.90;;
10651;SDS011;5374;42.742;23.266;2023-11-25T07:08:06;3.93;;;2.43;;
10651;SDS011;5374;42.742;23.266;2023-11-25T07:10:55;2.97;;;1.90;;
10651;SDS011;5374;42.742;23.266;2023-11-25T07:13:44;2.50;;;2.30;;
10651;SDS011;5374;42.742;23.266;2023-11-25T07:16:32;5.83;;;3.27;;
10651;SDS011;5374;42.742;23.266;2023-11-25T07:19:19;6.53;;;4.03;;
10651;SDS011;5374;42.742;23.266;2023-11-25T07:22:16;5.60;;;4.47;;
10651;SDS011;5374;42.742;23.266;2023-11-25T07:25:08;7.07;;;5.03;;
10651;SDS011;5374;42.742;23.266;2023-11-25T07:27:58;9.20;;;6.77;;
10651;SDS011;5374;42.742;23.266;2023-11-25T07:30:47;9.57;;;6.57;;
10651;SDS011;5374;42.742;23.266;2023-11-25T07:33:35;10.17;;;7.40;;
10651;SDS011;5374;42.742;23.266;2023-11-25T07:36:22;6.67;;;4.70;;
10651;SDS011;5374;42.742;23.266;2023-11-25T07:39:09;4.67;;;3.93;;
10651;SDS011;5374;42.742;23.266;2023-11-25T07:41:59;7.93;;;5.30;;
10651;SDS011;5374;42.742;23.266;2023-11-25T07:44:48;7.97;;;6.50;;
10651;SDS011;5374;42.742;23.266;2023-11-25T07:47:36;9.53;;;6.90;;
10651;SDS011;5374;42.742;23.266;2023-11-25T07:50:23;6.33;;;5.07;;
10651;SDS011;5374;42.742;23.266;2023-11-25T07:53:11;5.20;;;3.50;;
10651;SDS011;5374;42.742;23.266;2023-11-25T07:55:58;3.37;;;2.40;;
10651;SDS011;5374;42.742;23.266;2023-11-25T07:58:46;2.60;;;2.40;;
10651;SDS011;5374;42.742;23.266;2023-11-25T08:01:35;8.43;;;4.33;;
10651;SDS011;5374;42.742;23.266;2023-11-25T08:04:22;8.20;;;4.20;;
10651;SDS011;5374;42.742;23.266;2023-11-25T08:07:10;13.30;;;6.30;;
10651;SDS011;5374;42.742;23.266;2023-11-25T08:10:00;8.50;;;4.53;;
10651;SDS011;5374;42.742;23.266;2023-11-25T08:12:49;5.87;;;3.60;;
10651;SDS011;5374;42.742;23.266;2023-11-25T08:15:36;4.37;;;2.80;;
10651;SDS011;5374;42.742;23.266;2023-11-25T08:18:25;5.30;;;3.47;;
10651;SDS011;5374;42.742;23.266;2023-11-25T08:21:12;8.50;;;5.10;;
10651;SDS011;5374;42.742;23.266;2023-11-25T08:24:00;7.47;;;4.70;;
10651;SDS011;5374;42.742;23.266;2023-11-25T08:26:47;4.47;;;3.50;;
10651;SDS011;5374;42.742;23.266;2023-11-25T08:29:34;6.43;;;4.27;;
10651;SDS011;5374;42.742;23.266;2023-11-25T08:32:21;5.97;;;4.23;;
10651;SDS011;5374;42.742;23.266;2023-11-25T08:35:11;5.43;;;4.00;;
10651;SDS011;5374;42.742;23.266;2023-11-25T08:37:59;4.90;;;3.67;;
10651;SDS011;5374;42.742;23.266;2023-11-25T08:40:46;5.23;;;3.67;;
10651;SDS011;5374;42.742;23.266;2023-11-25T08:43:33;4.97;;;3.50;;
10651;SDS011;5374;42.742;23.266;2023-11-25T08:46:21;5.57;;;4.13;;
10651;SDS011;5374;42.742;23.266;2023-11-25T08:49:08;7.33;;;5.00;;
10651;SDS011;5374;42.742;23.266;2023-11-25T08:51:58;9.87;;;5.73;;
10651;SDS011;5374;42.742;23.266;2023-11-25T08:54:48;7.97;;;4.93;;
10651;SDS011;5374;42.742;23.266;2023-11-25T08:57:38;6.70;;;4.10;;
10651;SDS011;5374;42.742;23.266;2023-11-25T09:00:25;11.47;;;5.30;;
10651;SDS011;5374;42.742;23.266;2023-11-25T09:03:14;9.93;;;6.37;;
10651;SDS011;5374;42.742;23.266;2023-11-25T09:06:01;9.07;;;5.23;;
10651;SDS011;5374;42.742;23.266;2023-11-25T09:08:51;6.10;;;3.57;;
10651;SDS011;5374;42.742;23.266;2023-11-25T09:11:39;7.77;;;5.00;;
10651;SDS011;5374;42.742;23.266;2023-11-25T09:14:26;5.50;;;3.53;;
10651;SDS011;5374;42.742;23.266;2023-11-25T09:17:14;3.83;;;2.63;;
10651;SDS011;5374;42.742;23.266;2023-11-25T09:20:02;5.87;;;3.00;;
10651;SDS011;5374;42.742;23.266;2023-11-25T09:22:50;7.13;;;3.67;;
10651;SDS011;5374;42.742;23.266;2023-11-25T09:25:39;8.43;;;4.97;;
10651;SDS011;5374;42.742;23.266;2023-11-25T09:28:26;7.70;;;4.43;;
10651;SDS011;5374;42.742;23.266;2023-11-25T09:31:14;12.83;;;6.37;;
10651;SDS011;5374;42.742;23.266;2023-11-25T09:34:02;13.43;;;7.93;;
10651;SDS011;5374;42.742;23.266;2023-11-25T09:36:49;17.73;;;11.63;;
10651;SDS011;5374;42.742;23.266;2023-11-25T09:39:37;27.77;;;16.47;;
10651;SDS011;5374;42.742;23.266;2023-11-25T09:42:25;13.43;;;8.50;;
10651;SDS011;5374;42.742;23.266;2023-11-25T09:45:13;12.57;;;8.10;;
10651;SDS011;5374;42.742;23.266;2023-11-25T09:48:01;23.40;;;14.20;;
10651;SDS011;5374;42.742;23.266;2023-11-25T09:50:48;13.07;;;9.80;;
10651;SDS011;5374;42.742;23.266;2023-11-25T09:53:38;13.37;;;8.33;;
10651;SDS011;5374;42.742;23.266;2023-11-25T09:56:28;38.33;;;27.70;;
10651;SDS011;5374;42.742;23.266;2023-11-25T09:59:18;33.67;;;20.97;;
10651;SDS011;5374;42.742;23.266;2023-11-25T10:02:06;34.37;;;25.80;;
10651;SDS011;5374;42.742;23.266;2023-11-25T10:05:01;27.87;;;21.93;;
10651;SDS011;5374;42.742;23.266;2023-11-25T10:07:50;15.70;;;12.83;;
10651;SDS011;5374;42.742;23.266;2023-11-25T10:10:37;13.63;;;10.90;;
10651;SDS011;5374;42.742;23.266;2023-11-25T10:13:24;19.53;;;10.60;;
10651;SDS011;5374;42.742;23.266;2023-11-25T10:16:13;31.37;;;14.30;;
10651;SDS011;5374;42.742;23.266;2023-11-25T10:19:16;31.40;;;14.73;;
10651;SDS011;5374;42.742;23.266;2023-11-25T10:22:05;35.07;;;13.43;;
10651;SDS011;5374;42.742;23.266;2023-11-25T10:24:52;39.17;;;11.60;;
10651;SDS011;5374;42.742;23.266;2023-11-25T10:27:41;26.90;;;10.73;;
10651;SDS011;5374;42.742;23.266;2023-11-25T10:30:28;21.40;;;8.33;;
10651;SDS011;5374;42.742;23.266;2023-11-25T10:33:16;29.43;;;11.37;;
10651;SDS011;5374;42.742;23.266;2023-11-25T10:36:04;28.23;;;11.33;;
10651;SDS011;5374;42.742;23.266;2023-11-25T10:38:52;36.27;;;14.97;;
10651;SDS011;5374;42.742;23.266;2023-11-25T10:41:40;20.60;;;10.10;;
10651;SDS011;5374;42.742;23.266;2023-11-25T10:44:28;15.77;;;8.43;;
10651;SDS011;5374;42.742;23.266;2023-11-25T10:47:27;15.30;;;8.83;;
10651;SDS011;5374;42.742;23.266;2023-11-25T10:50:19;12.30;;;8.97;;
10651;SDS011;5374;42.742;23.266;2023-11-25T10:53:09;8.03;;;5.50;;
10651;SDS011;5374;42.742;23.266;2023-11-25T10:56:00;12.20;;;9.00;;
10651;SDS011;5374;42.742;23.266;2023-11-25T10:58:49;15.20;;;11.23;;
10651;SDS011;5374;42.742;23.266;2023-11-25T11:01:39;7.20;;;5.20;;
10651;SDS011;5374;42.742;23.266;2023-11-25T11:04:31;7.50;;;6.13;;
10651;SDS011;5374;42.742;23.266;2023-11-25T11:07:24;9.33;;;6.63;;
10651;SDS011;5374;42.742;23.266;2023-11-25T11:10:23;9.37;;;7.03;;
10651;SDS011;5374;42.742;23.266;2023-11-25T11:13:21;6.13;;;4.90;;
10651;SDS011;5374;42.742;23.266;2023-11-25T11:16:15;7.20;;;5.50;;
10651;SDS011;5374;42.742;23.266;2023-11-25T11:19:03;8.27;;;5.37;;
10651;SDS011;5374;42.742;23.266;2023-11-25T11:21:51;7.10;;;4.87;;
10651;SDS011;5374;42.742;23.266;2023-11-25T11:24:52;13.27;;;7.87;;
10651;SDS011;5374;42.742;23.266;2023-11-25T11:27:53;8.30;;;5.67;;
10651;SDS011;5374;42.742;23.266;2023-11-25T11:30:47;6.03;;;4.70;;
10651;SDS011;5374;42.742;23.266;2023-11-25T11:33:56;8.57;;;5.93;;
10651;SDS011;5374;42.742;23.266;2023-11-25T11:36:47;5.40;;;3.60;;
10651;SDS011;5374;42.742;23.266;2023-11-25T11:39:37;4.70;;;3.20;;
10651;SDS011;5374;42.742;23.266;2023-11-25T11:42:29;7.47;;;3.87;;
10651;SDS011;5374;42.742;23.266;2023-11-25T11:45:25;4.90;;;4.03;;
10651;SDS011;5374;42.742;23.266;2023-11-25T11:48:12;6.53;;;4.00;;
10651;SDS011;5374;42.742;23.266;2023-11-25T11:51:00;5.77;;;3.73;;
10651;SDS011;5374;42.742;23.266;2023-11-25T11:53:55;5.07;;;4.27;;
10651;SDS011;5374;42.742;23.266;2023-11-25T11:57:12;7.13;;;5.20;;
10651;SDS011;5374;42.742;23.266;2023-11-25T12:00:02;12.90;;;7.20;;
10651;SDS011;5374;42.742;23.266;2023-11-25T12:02:57;14.60;;;8.93;;
10651;SDS011;5374;42.742;23.266;2023-11-25T12:05:45;13.67;;;7.83;;
10651;SDS011;5374;42.742;23.266;2023-11-25T12:08:33;10.67;;;6.60;;
10651;SDS011;5374;42.742;23.266;2023-11-25T12:11:21;14.47;;;8.23;;
10651;SDS011;5374;42.742;23.266;2023-11-25T12:14:08;17.47;;;10.63;;
10651;SDS011;5374;42.742;23.266;2023-11-25T12:16:57;22.63;;;13.27;;
10651;SDS011;5374;42.742;23.266;2023-11-25T12:19:44;19.27;;;11.07;;
10651;SDS011;5374;42.742;23.266;2023-11-25T12:22:32;14.60;;;10.00;;
10651;SDS011;5374;42.742;23.266;2023-11-25T12:25:19;13.30;;;8.73;;
10651;SDS011;5374;42.742;23.266;2023-11-25T12:28:07;12.13;;;8.40;;
10651;SDS011;5374;42.742;23.266;2023-11-25T12:30:55;10.60;;;7.93;;
10651;SDS011;5374;42.742;23.266;2023-11-25T12:33:46;10.37;;;6.43;;
10651;SDS011;5374;42.742;23.266;2023-11-25T12:36:33;7.63;;;5.43;;
10651;SDS011;5374;42.742;23.266;2023-11-25T12:39:21;10.67;;;6.47;;
10651;SDS011;5374;42.742;23.266;2023-11-25T12:42:09;9.83;;;6.77;;
10651;SDS011;5374;42.742;23.266;2023-11-25T12:44:57;9.97;;;7.13;;
10651;SDS011;5374;42.742;23.266;2023-11-25T12:47:46;8.50;;;6.03;;
10651;SDS011;5374;42.742;23.266;2023-11-25T12:53:51;10.80;;;6.60;;
10651;SDS011;5374;42.742;23.266;2023-11-25T12:56:39;8.23;;;6.13;;
10651;SDS011;5374;42.742;23.266;2023-11-25T12:59:27;9.80;;;6.80;;
10651;SDS011;5374;42.742;23.266;2023-11-25T13:02:15;21.37;;;11.90;;
10651;SDS011;5374;42.742;23.266;2023-11-25T13:05:04;20.53;;;12.67;;
10651;SDS011;5374;42.742;23.266;2023-11-25T13:07:53;18.13;;;12.33;;
10651;SDS011;5374;42.742;23.266;2023-11-25T13:10:41;14.67;;;10.63;;
10651;SDS011;5374;42.742;23.266;2023-11-25T13:13:28;13.00;;;8.73;;
10651;SDS011;5374;42.742;23.266;2023-11-25T13:16:15;16.67;;;11.57;;
10651;SDS011;5374;42.742;23.266;2023-11-25T13:19:02;19.40;;;12.57;;
10651;SDS011;5374;42.742;23.266;2023-11-25T13:21:50;23.47;;;13.47;;
10651;SDS011;5374;42.742;23.266;2023-11-25T13:24:39;22.27;;;13.47;;
10651;SDS011;5374;42.742;23.266;2023-11-25T13:27:26;23.40;;;14.07;;
10651;SDS011;5374;42.742;23.266;2023-11-25T13:30:13;26.00;;;15.73;;
10651;SDS011;5374;42.742;23.266;2023-11-25T13:33:01;71.60;;;39.00;;
10651;SDS011;5374;42.742;23.266;2023-11-25T13:35:49;39.53;;;21.73;;
10651;SDS011;5374;42.742;23.266;2023-11-25T13:38:36;24.10;;;15.43;;
10651;SDS011;5374;42.742;23.266;2023-11-25T13:41:25;20.87;;;14.23;;
10651;SDS011;5374;42.742;23.266;2023-11-25T13:44:13;17.13;;;13.23;;
10651;SDS011;5374;42.742;23.266;2023-11-25T13:47:01;14.63;;;11.53;;
10651;SDS011;5374;42.742;23.266;2023-11-25T13:49:48;31.90;;;22.77;;
10651;SDS011;5374;42.742;23.266;2023-11-25T13:52:35;39.33;;;28.17;;
10651;SDS011;5374;42.742;23.266;2023-11-25T13:55:23;35.13;;;24.53;;
10651;SDS011;5374;42.742;23.266;2023-11-25T13:58:14;43.10;;;29.50;;
10651;SDS011;5374;42.742;23.266;2023-11-25T14:01:02;46.20;;;29.70;;
10651;SDS011;5374;42.742;23.266;2023-11-25T14:03:51;43.23;;;27.57;;
10651;SDS011;5374;42.742;23.266;2023-11-25T14:06:41;42.83;;;28.67;;
10651;SDS011;5374;42.742;23.266;2023-11-25T14:09:29;55.80;;;37.50;;
10651;SDS011;5374;42.742;23.266;2023-11-25T14:12:16;32.13;;;23.87;;
10651;SDS011;5374;42.742;23.266;2023-11-25T14:15:06;24.33;;;18.87;;
10651;SDS011;5374;42.742;23.266;2023-11-25T14:17:55;19.50;;;14.00;;
10651;SDS011;5374;42.742;23.266;2023-11-25T14:20:42;15.00;;;12.03;;
10651;SDS011;5374;42.742;23.266;2023-11-25T14:23:29;19.53;;;15.37;;
10651;SDS011;5374;42.742;23.266;2023-11-25T14:26:17;21.70;;;14.67;;
10651;SDS011;5374;42.742;23.266;2023-11-25T14:29:04;20.40;;;14.67;;
10651;SDS011;5374;42.742;23.266;2023-11-25T14:31:53;18.90;;;13.80;;
10651;SDS011;5374;42.742;23.266;2023-11-25T14:34:40;17.17;;;12.27;;
10651;SDS011;5374;42.742;23.266;2023-11-25T14:37:27;13.50;;;10.97;;
10651;SDS011;5374;42.742;23.266;2023-11-25T14:40:14;13.57;;;10.50;;
10651;SDS011;5374;42.742;23.266;2023-11-25T14:43:03;12.13;;;10.43;;
10651;SDS011;5374;42.742;23.266;2023-11-25T14:45:51;16.67;;;12.70;;
10651;SDS011;5374;42.742;23.266;2023-11-25T14:48:40;36.53;;;20.27;;
10651;SDS011;5374;42.742;23.266;2023-11-25T14:51:27;36.67;;;22.23;;
10651;SDS011;5374;42.742;23.266;2023-11-25T14:54:14;27.07;;;17.33;;
10651;SDS011;5374;42.742;23.266;2023-11-25T14:57:05;21.03;;;13.97;;
10651;SDS011;5374;42.742;23.266;2023-11-25T14:59:52;14.60;;;10.50;;
10651;SDS011;5374;42.742;23.266;2023-11-25T15:02:40;9.30;;;7.83;;
10651;SDS011;5374;42.742;23.266;2023-11-25T15:05:28;11.20;;;9.10;;
10651;SDS011;5374;42.742;23.266;2023-11-25T15:08:15;9.93;;;7.90;;
10651;SDS011;5374;42.742;23.266;2023-11-25T15:11:03;9.10;;;7.43;;
10651;SDS011;5374;42.742;23.266;2023-11-25T15:13:50;7.27;;;6.27;;
10651;SDS011;5374;42.742;23.266;2023-11-25T15:16:37;10.53;;;7.70;;
10651;SDS011;5374;42.742;23.266;2023-11-25T15:19:25;10.17;;;8.37;;
10651;SDS011;5374;42.742;23.266;2023-11-25T15:22:15;11.43;;;9.47;;
10651;SDS011;5374;42.742;23.266;2023-11-25T15:25:03;14.73;;;11.43;;
10651;SDS011;5374;42.742;23.266;2023-11-25T15:27:51;14.87;;;12.03;;
10651;SDS011;5374;42.742;23.266;2023-11-25T15:30:40;16.47;;;13.27;;
10651;SDS011;5374;42.742;23.266;2023-11-25T15:33:27;24.87;;;20.33;;
10651;SDS011;5374;42.742;23.266;2023-11-25T15:36:14;35.23;;;26.33;;
10651;SDS011;5374;42.742;23.266;2023-11-25T15:39:04;24.03;;;18.53;;
10651;SDS011;5374;42.742;23.266;2023-11-25T15:41:52;30.63;;;23.60;;
10651;SDS011;5374;42.742;23.266;2023-11-25T15:44:39;25.30;;;20.03;;
10651;SDS011;5374;42.742;23.266;2023-11-25T15:47:26;16.53;;;13.53;;
10651;SDS011;5374;42.742;23.266;2023-11-25T15:50:14;16.70;;;12.03;;
10651;SDS011;5374;42.742;23.266;2023-11-25T15:53:01;86.63;;;33.47;;
10651;SDS011;5374;42.742;23.266;2023-11-25T15:55:51;203.93;;;66.87;;
10651;SDS011;5374;42.742;23.266;2023-11-25T15:58:39;110.53;;;46.00;;
10651;SDS011;5374;42.742;23.266;2023-11-25T16:01:27;56.20;;;29.57;;
10651;SDS011;5374;42.742;23.266;2023-11-25T16:04:14;35.63;;;21.43;;
10651;SDS011;5374;42.742;23.266;2023-11-25T16:07:05;18.67;;;13.93;;
10651;SDS011;5374;42.742;23.266;2023-11-25T16:09:56;15.87;;;12.00;;
10651;SDS011;5374;42.742;23.266;2023-11-25T16:12:45;13.97;;;9.47;;
10651;SDS011;5374;42.742;23.266;2023-11-25T16:15:32;25.97;;;19.97;;
10651;SDS011;5374;42.742;23.266;2023-11-25T16:18:20;31.87;;;23.30;;
10651;SDS011;5374;42.742;23.266;2023-11-25T16:21:07;23.37;;;18.20;;
10651;SDS011;5374;42.742;23.266;2023-11-25T16:23:55;25.73;;;18.00;;
10651;SDS011;5374;42.742;23.266;2023-11-25T16:26:45;32.87;;;22.03;;
10651;SDS011;5374;42.742;23.266;2023-11-25T16:29:35;32.03;;;21.73;;
10651;SDS011;5374;42.742;23.266;2023-11-25T16:32:23;106.50;;;51.60;;
10651;SDS011;5374;42.742;23.266;2023-11-25T16:35:10;137.47;;;60.03;;
10651;SDS011;5374;42.742;23.266;2023-11-25T16:38:00;110.13;;;50.00;;
10651;SDS011;5374;42.742;23.266;2023-11-25T16:40:48;127.10;;;60.30;;
10651;SDS011;5374;42.742;23.266;2023-11-25T16:43:35;43.30;;;23.97;;
10651;SDS011;5374;42.742;23.266;2023-11-25T16:46:24;11.17;;;8.53;;
10651;SDS011;5374;42.742;23.266;2023-11-25T16:49:11;9.57;;;5.80;;